createdAt,value
2023-03-19T00:00:32.539Z,4.70
2023-03-19T00:01:32.483Z,5.00
2023-03-19T00:02:32.612Z,5.20
2023-03-19T00:03:32.528Z,4.60
2023-03-19T00:04:32.468Z,4.60
2023-03-19T00:05:32.720Z,5.00
2023-03-19T00:06:32.429Z,5.10
2023-03-19T00:07:32.400Z,5.20
2023-03-19T00:08:32.465Z,5.40
2023-03-19T00:09:32.391Z,5.20
2023-03-19T00:10:32.363Z,4.90
2023-03-19T00:11:32.358Z,5.30
2023-03-19T00:12:32.355Z,4.80
2023-03-19T00:13:32.359Z,4.80
2023-03-19T00:14:32.355Z,4.90
2023-03-19T00:15:32.683Z,5.00
2023-03-19T00:16:32.371Z,5.00
2023-03-19T00:17:32.277Z,4.60
2023-03-19T00:18:32.292Z,4.60
2023-03-19T00:19:32.269Z,4.80
2023-03-19T00:20:32.283Z,4.00
2023-03-19T00:21:32.228Z,3.40
2023-03-19T00:22:32.221Z,3.00
2023-03-19T00:23:32.222Z,3.20
2023-03-19T00:24:32.194Z,2.80
2023-03-19T00:25:32.554Z,3.10
2023-03-19T00:26:32.194Z,2.80
2023-03-19T00:27:32.164Z,2.90
2023-03-19T00:28:32.141Z,2.70
2023-03-19T00:29:32.130Z,2.90
2023-03-19T00:30:32.231Z,2.50
2023-03-19T00:31:32.099Z,2.50
2023-03-19T00:32:32.178Z,2.70
2023-03-19T00:33:32.082Z,2.70
2023-03-19T00:34:32.137Z,2.60
2023-03-19T00:35:32.396Z,2.30
2023-03-19T00:36:32.043Z,2.40
2023-03-19T00:37:32.030Z,2.30
2023-03-19T00:38:32.067Z,2.60
2023-03-19T00:39:32.012Z,2.40
2023-03-19T00:40:32.006Z,2.50
2023-03-19T00:41:31.973Z,2.70
2023-03-19T00:42:31.976Z,2.30
2023-03-19T00:43:31.941Z,2.70
2023-03-19T00:44:32.002Z,2.60
2023-03-19T00:45:32.164Z,2.30
2023-03-19T00:46:32.043Z,2.80
2023-03-19T00:47:31.891Z,2.60
2023-03-19T00:48:31.895Z,2.50
2023-03-19T00:49:31.887Z,2.20
2023-03-19T00:50:31.919Z,2.20
2023-03-19T00:51:31.839Z,2.50
2023-03-19T00:52:31.838Z,2.30
2023-03-19T00:53:31.823Z,2.50
2023-03-19T00:54:31.811Z,2.40
2023-03-19T00:55:32.277Z,2.00
2023-03-19T00:56:31.845Z,2.30
2023-03-19T00:57:31.802Z,2.20
2023-03-19T00:58:31.761Z,2.10
2023-03-19T00:59:31.759Z,2.10
2023-03-19T01:00:31.733Z,2.20
2023-03-19T01:01:31.794Z,2.10
2023-03-19T01:02:31.741Z,2.10
2023-03-19T01:03:31.684Z,2.20
2023-03-19T01:04:31.842Z,2.10
2023-03-19T01:05:31.989Z,2.00
2023-03-19T01:06:31.670Z,2.00
2023-03-19T01:07:31.632Z,1.90
2023-03-19T01:08:31.674Z,2.00
2023-03-19T01:09:31.610Z,2.10
2023-03-19T01:10:31.612Z,2.20
2023-03-19T01:11:31.583Z,2.20
2023-03-19T01:12:31.572Z,2.20
2023-03-19T01:13:31.582Z,2.10
2023-03-19T01:14:31.582Z,2.00
2023-03-19T01:15:31.756Z,2.10
2023-03-19T01:16:31.534Z,2.20
2023-03-19T01:17:31.515Z,2.20
2023-03-19T01:18:31.488Z,2.30
2023-03-19T01:19:31.485Z,2.60
2023-03-19T01:20:31.721Z,2.30
2023-03-19T01:21:31.471Z,2.50
2023-03-19T01:22:31.449Z,2.50
2023-03-19T01:23:31.452Z,2.20
2023-03-19T01:24:31.416Z,2.50
2023-03-19T01:25:31.405Z,2.20
2023-03-19T01:26:31.426Z,2.20
2023-03-19T01:27:31.387Z,2.50
2023-03-19T01:28:31.363Z,2.30
2023-03-19T01:29:31.360Z,2.00
2023-03-19T01:30:31.488Z,2.20
2023-03-19T01:31:31.457Z,2.40
2023-03-19T01:32:31.337Z,2.40
2023-03-19T01:33:31.301Z,2.30
2023-03-19T01:34:31.300Z,2.50
2023-03-19T01:35:31.313Z,2.20
2023-03-19T01:36:31.274Z,2.30
2023-03-19T01:37:31.245Z,2.40
2023-03-19T01:38:31.275Z,2.60
2023-03-19T01:39:31.225Z,2.30
2023-03-19T01:40:31.371Z,2.50
2023-03-19T01:41:31.207Z,2.70
2023-03-19T01:42:31.206Z,2.70
2023-03-19T01:43:31.171Z,2.50
2023-03-19T01:44:31.203Z,3.00
2023-03-19T01:45:31.146Z,3.00
2023-03-19T01:46:31.226Z,2.90
2023-03-19T01:47:31.121Z,2.80
2023-03-19T01:48:31.165Z,3.00
2023-03-19T01:49:31.094Z,2.90
2023-03-19T01:50:31.399Z,2.80
2023-03-19T01:51:31.065Z,2.90
2023-03-19T01:52:31.054Z,2.70
2023-03-19T01:53:31.040Z,2.80
2023-03-19T01:54:31.030Z,3.20
2023-03-19T01:55:31.021Z,3.00
2023-03-19T01:56:31.034Z,2.80
2023-03-19T01:57:31.043Z,2.80
2023-03-19T01:58:31.020Z,2.70
2023-03-19T01:59:30.962Z,2.70
2023-03-19T02:00:31.019Z,3.00
2023-03-19T02:02:29.641Z,3.10
2023-03-19T02:03:30.580Z,2.80
2023-03-19T02:04:30.562Z,2.90
2023-03-19T02:05:30.558Z,2.60
2023-03-19T02:06:30.544Z,2.70
2023-03-19T02:07:30.617Z,2.80
2023-03-19T02:08:30.518Z,2.70
2023-03-19T02:09:30.505Z,2.60
2023-03-19T02:10:30.689Z,2.40
2023-03-19T02:11:30.471Z,3.20
2023-03-19T02:12:30.450Z,3.20
2023-03-19T02:13:30.538Z,2.60
2023-03-19T02:14:30.434Z,2.60
2023-03-19T02:15:30.424Z,2.70
2023-03-19T02:16:30.490Z,2.80
2023-03-19T02:17:30.403Z,2.80
2023-03-19T02:18:30.376Z,2.70
2023-03-19T02:19:30.401Z,2.70
2023-03-19T02:20:30.362Z,3.00
2023-03-19T02:21:30.334Z,2.70
2023-03-19T02:22:30.322Z,2.90
2023-03-19T02:23:30.311Z,2.90
2023-03-19T02:24:30.298Z,2.50
2023-03-19T02:25:30.335Z,2.80
2023-03-19T02:26:30.274Z,2.80
2023-03-19T02:27:30.257Z,2.90
2023-03-19T02:28:30.255Z,2.70
2023-03-19T02:29:30.249Z,2.50
2023-03-19T02:30:30.243Z,2.80
2023-03-19T02:31:30.319Z,2.90
2023-03-19T02:32:30.224Z,2.70
2023-03-19T02:33:30.178Z,2.70
2023-03-19T02:34:30.188Z,2.90
2023-03-19T02:35:30.239Z,2.80
2023-03-19T02:36:30.145Z,2.60
2023-03-19T02:37:33.420Z,2.60
2023-03-19T02:38:30.141Z,3.00
2023-03-19T02:39:30.105Z,2.70
2023-03-19T02:40:30.124Z,2.60
2023-03-19T02:41:30.084Z,2.70
2023-03-19T02:42:30.078Z,2.90
2023-03-19T02:43:30.103Z,3.10
2023-03-19T02:44:30.041Z,2.90
2023-03-19T02:45:30.053Z,2.70
2023-03-19T02:46:30.054Z,2.60
2023-03-19T02:47:30.027Z,2.60
2023-03-19T02:48:29.984Z,2.60
2023-03-19T02:49:30.009Z,2.90
2023-03-19T02:50:29.975Z,2.90
2023-03-19T02:51:29.964Z,2.90
2023-03-19T02:52:29.935Z,2.90
2023-03-19T02:53:29.937Z,3.10
2023-03-19T02:54:29.923Z,2.50
2023-03-19T02:55:29.948Z,3.00
2023-03-19T02:56:29.877Z,2.80
2023-03-19T02:57:29.896Z,3.30
2023-03-19T02:58:29.871Z,2.90
2023-03-19T02:59:29.852Z,2.90
2023-03-19T03:00:29.873Z,3.20
2023-03-19T03:01:29.856Z,3.20
2023-03-19T03:02:29.856Z,3.00
2023-03-19T03:03:29.804Z,2.90
2023-03-19T03:04:29.794Z,3.00
2023-03-19T03:05:29.804Z,2.90
2023-03-19T03:06:29.769Z,3.10
2023-03-19T03:07:29.792Z,3.20
2023-03-19T03:08:29.743Z,3.20
2023-03-19T03:09:29.720Z,3.10
2023-03-19T03:10:29.727Z,3.00
2023-03-19T03:11:29.706Z,3.00
2023-03-19T03:12:29.691Z,2.90
2023-03-19T03:13:29.697Z,3.40
2023-03-19T03:14:29.654Z,3.40
2023-03-19T03:15:29.663Z,3.20
2023-03-19T03:16:29.666Z,3.00
2023-03-19T03:17:29.636Z,3.10
2023-03-19T03:18:29.613Z,3.00
2023-03-19T03:19:29.621Z,2.80
2023-03-19T03:20:29.584Z,2.90
2023-03-19T03:21:29.597Z,2.80
2023-03-19T03:22:29.586Z,2.90
2023-03-19T03:23:29.552Z,2.90
2023-03-19T03:24:29.544Z,2.90
2023-03-19T03:25:29.556Z,2.70
2023-03-19T03:26:29.512Z,2.60
2023-03-19T03:27:29.489Z,3.20
2023-03-19T03:28:29.486Z,2.80
2023-03-19T03:29:29.470Z,2.90
2023-03-19T03:30:29.467Z,3.30
2023-03-19T03:31:29.523Z,3.20
2023-03-19T03:32:29.429Z,3.20
2023-03-19T03:33:29.433Z,3.10
2023-03-19T03:34:29.412Z,3.50
2023-03-19T03:35:29.401Z,3.30
2023-03-19T03:36:29.378Z,3.80
2023-03-19T03:37:29.398Z,3.60
2023-03-19T03:38:29.369Z,3.60
2023-03-19T03:39:29.349Z,3.90
2023-03-19T03:40:29.342Z,3.70
2023-03-19T03:41:29.315Z,3.70
2023-03-19T03:42:29.322Z,3.60
2023-03-19T03:43:29.332Z,3.20
2023-03-19T03:44:29.279Z,3.60
2023-03-19T03:45:29.293Z,3.40
2023-03-19T03:46:29.248Z,3.60
2023-03-19T03:47:29.246Z,3.20
2023-03-19T03:48:29.222Z,3.70
2023-03-19T03:49:29.250Z,3.40
2023-03-19T03:50:29.202Z,3.30
2023-03-19T03:51:29.191Z,3.50
2023-03-19T03:52:29.179Z,3.30
2023-03-19T03:53:29.161Z,3.40
2023-03-19T03:54:29.155Z,3.40
2023-03-19T03:55:29.160Z,3.50
2023-03-19T03:56:29.115Z,3.80
2023-03-19T03:57:29.102Z,5.90
2023-03-19T03:58:29.107Z,5.60
2023-03-19T03:59:29.097Z,5.70
2023-03-19T04:00:29.070Z,4.30
2023-03-19T04:01:29.090Z,4.30
2023-03-19T04:02:29.105Z,4.00
2023-03-19T04:03:29.061Z,3.60
2023-03-19T04:04:29.031Z,3.80
2023-03-19T04:05:29.012Z,3.60
2023-03-19T04:06:28.990Z,3.90
2023-03-19T04:07:29.011Z,3.70
2023-03-19T04:08:28.978Z,3.80
2023-03-19T04:09:28.962Z,3.80
2023-03-19T04:10:28.956Z,3.60
2023-03-19T04:11:28.928Z,3.70
2023-03-19T04:12:28.910Z,3.70
2023-03-19T04:13:28.933Z,4.20
2023-03-19T04:14:28.882Z,3.80
2023-03-19T04:15:28.879Z,3.90
2023-03-19T04:16:28.889Z,3.90
2023-03-19T04:17:28.850Z,4.00
2023-03-19T04:18:28.900Z,3.80
2023-03-19T04:19:28.856Z,3.70
2023-03-19T04:20:28.820Z,3.60
2023-03-19T04:21:28.800Z,4.00
2023-03-19T04:22:28.794Z,3.90
2023-03-19T04:23:28.782Z,4.10
2023-03-19T04:24:28.756Z,3.80
2023-03-19T04:25:28.779Z,3.70
2023-03-19T04:26:28.730Z,3.60
2023-03-19T04:27:28.729Z,4.00
2023-03-19T04:28:28.724Z,4.00
2023-03-19T04:29:28.698Z,4.00
2023-03-19T04:30:28.772Z,3.50
2023-03-19T04:31:28.751Z,3.70
2023-03-19T04:32:28.670Z,3.80
2023-03-19T04:33:28.640Z,3.80
2023-03-19T04:34:28.640Z,3.40
2023-03-19T04:35:28.681Z,3.70
2023-03-19T04:36:28.641Z,3.70
2023-03-19T04:37:28.642Z,3.60
2023-03-19T04:38:28.607Z,3.50
2023-03-19T04:39:28.572Z,3.70
2023-03-19T04:40:28.599Z,3.60
2023-03-19T04:41:28.562Z,3.50
2023-03-19T04:42:28.538Z,3.80
2023-03-19T04:43:28.561Z,3.70
2023-03-19T04:44:28.520Z,3.60
2023-03-19T04:45:28.530Z,3.90
2023-03-19T04:46:28.556Z,3.70
2023-03-19T04:47:28.470Z,3.70
2023-03-19T04:48:28.468Z,3.60
2023-03-19T04:49:28.480Z,3.50
2023-03-19T04:50:28.441Z,3.60
2023-03-19T04:51:28.413Z,3.80
2023-03-19T04:52:28.403Z,3.70
2023-03-19T04:53:28.416Z,3.60
2023-03-19T04:54:28.389Z,3.60
2023-03-19T04:55:28.431Z,3.60
2023-03-19T04:56:28.376Z,3.80
2023-03-19T04:57:28.346Z,3.70
2023-03-19T04:58:28.333Z,3.60
2023-03-19T04:59:28.334Z,3.70
2023-03-19T05:00:28.305Z,3.90
2023-03-19T05:01:28.448Z,4.20
2023-03-19T05:02:28.272Z,4.50
2023-03-19T05:03:28.362Z,4.50
2023-03-19T05:04:28.265Z,5.00
2023-03-19T05:05:28.259Z,5.10
2023-03-19T05:06:28.241Z,5.40
2023-03-19T05:07:28.262Z,5.20
2023-03-19T05:08:28.212Z,4.70
2023-03-19T05:09:28.188Z,4.60
2023-03-19T05:10:28.177Z,4.00
2023-03-19T05:11:28.180Z,3.90
2023-03-19T05:12:28.167Z,3.60
2023-03-19T05:13:28.173Z,3.80
2023-03-19T05:14:28.143Z,3.80
2023-03-19T05:15:28.112Z,3.50
2023-03-19T05:16:28.128Z,3.90
2023-03-19T05:17:28.097Z,3.50
2023-03-19T05:18:28.074Z,4.30
2023-03-19T05:19:28.094Z,3.90
2023-03-19T05:20:28.055Z,4.10
2023-03-19T05:21:28.048Z,3.90
2023-03-19T05:22:28.035Z,3.70
2023-03-19T05:23:28.007Z,3.90
2023-03-19T05:24:27.998Z,4.40
2023-03-19T05:25:28.026Z,3.70
2023-03-19T05:26:27.984Z,3.60
2023-03-19T05:27:27.965Z,3.60
2023-03-19T05:28:27.967Z,3.80
2023-03-19T05:29:27.942Z,3.70
2023-03-19T05:30:27.932Z,3.60
2023-03-19T05:31:27.995Z,3.60
2023-03-19T05:32:27.904Z,3.60
2023-03-19T05:33:27.889Z,3.60
2023-03-19T05:34:27.873Z,4.00
2023-03-19T05:35:27.902Z,3.60
2023-03-19T05:36:27.846Z,3.60
2023-03-19T05:37:27.877Z,3.60
2023-03-19T05:38:27.826Z,3.40
2023-03-19T05:39:27.821Z,3.80
2023-03-19T05:40:27.801Z,3.60
2023-03-19T05:41:27.813Z,3.50
2023-03-19T05:42:27.789Z,3.90
2023-03-19T05:43:27.804Z,3.80
2023-03-19T05:44:27.751Z,3.60
2023-03-19T05:45:27.752Z,3.60
2023-03-19T05:46:27.781Z,3.90
2023-03-19T05:47:27.736Z,3.50
2023-03-19T05:48:27.706Z,3.90
2023-03-19T05:49:27.706Z,3.70
2023-03-19T05:50:27.718Z,3.80
2023-03-19T05:51:27.661Z,3.50
2023-03-19T05:52:27.667Z,4.00
2023-03-19T05:53:27.679Z,4.00
2023-03-19T05:54:27.649Z,4.00
2023-03-19T05:55:27.631Z,3.60
2023-03-19T05:56:27.612Z,4.10
2023-03-19T05:57:27.593Z,3.60
2023-03-19T05:58:27.563Z,3.80
2023-03-19T05:59:27.540Z,3.60
2023-03-19T06:00:27.533Z,4.10
2023-03-19T06:01:27.578Z,3.90
2023-03-19T06:02:27.528Z,4.00
2023-03-19T06:03:27.499Z,3.90
2023-03-19T06:04:27.602Z,4.10
2023-03-19T06:05:27.459Z,3.70
2023-03-19T06:06:27.462Z,3.40
2023-03-19T06:07:27.479Z,3.90
2023-03-19T06:08:27.426Z,3.90
2023-03-19T06:09:27.428Z,3.90
2023-03-19T06:10:27.410Z,3.70
2023-03-19T06:11:27.403Z,6.50
2023-03-19T06:12:27.403Z,6.30
2023-03-19T06:13:27.395Z,9.00
2023-03-19T06:14:27.398Z,10.80
2023-03-19T06:15:27.348Z,11.40
2023-03-19T06:16:27.359Z,10.00
2023-03-19T06:17:27.361Z,7.40
2023-03-19T06:18:27.311Z,6.20
2023-03-19T06:19:27.318Z,5.40
2023-03-19T06:20:27.294Z,7.30
2023-03-19T06:21:27.259Z,8.10
2023-03-19T06:22:27.253Z,8.90
2023-03-19T06:23:27.225Z,9.10
2023-03-19T06:24:27.225Z,7.60
2023-03-19T06:25:27.253Z,6.80
2023-03-19T06:26:27.195Z,7.80
2023-03-19T06:27:27.183Z,8.60
2023-03-19T06:28:27.185Z,8.40
2023-03-19T06:29:27.163Z,6.90
2023-03-19T06:30:27.151Z,6.20
2023-03-19T06:31:27.240Z,4.60
2023-03-19T06:32:27.130Z,4.00
2023-03-19T06:33:27.126Z,3.70
2023-03-19T06:34:27.097Z,3.90
2023-03-19T06:35:27.139Z,3.70
2023-03-19T06:36:27.106Z,4.30
2023-03-19T06:37:27.102Z,4.10
2023-03-19T06:38:27.064Z,4.30
2023-03-19T06:39:27.039Z,4.10
2023-03-19T06:40:27.053Z,4.20
2023-03-19T06:41:27.016Z,3.70
2023-03-19T06:42:27.051Z,3.80
2023-03-19T06:43:27.011Z,3.50
2023-03-19T06:44:26.975Z,3.50
2023-03-19T06:45:26.967Z,3.20
2023-03-19T06:46:26.954Z,3.50
2023-03-19T06:47:26.928Z,3.50
2023-03-19T06:48:26.915Z,3.60
2023-03-19T06:49:26.925Z,3.60
2023-03-19T06:50:26.928Z,3.80
2023-03-19T06:51:26.877Z,3.60
2023-03-19T06:52:26.873Z,3.90
2023-03-19T06:53:26.851Z,4.00
2023-03-19T06:54:26.835Z,4.20
2023-03-19T06:55:26.850Z,3.70
2023-03-19T06:56:26.807Z,3.80
2023-03-19T06:57:26.791Z,3.90
2023-03-19T06:58:26.781Z,3.60
2023-03-19T06:59:26.771Z,3.80
2023-03-19T07:00:26.764Z,3.70
2023-03-19T07:01:26.859Z,4.10
2023-03-19T07:02:26.740Z,4.00
2023-03-19T07:03:26.725Z,4.20
2023-03-19T07:04:26.733Z,4.60
2023-03-19T07:05:26.698Z,4.50
2023-03-19T07:06:26.695Z,5.10
2023-03-19T07:07:26.726Z,5.20
2023-03-19T07:08:26.653Z,5.10
2023-03-19T07:09:26.649Z,4.40
2023-03-19T07:10:26.636Z,4.00
2023-03-19T07:11:26.609Z,4.30
2023-03-19T07:12:26.599Z,4.10
2023-03-19T07:13:26.619Z,4.30
2023-03-19T07:14:26.607Z,4.30
2023-03-19T07:15:26.557Z,4.50
2023-03-19T07:16:26.590Z,4.50
2023-03-19T07:17:26.538Z,4.60
2023-03-19T07:18:26.526Z,4.60
2023-03-19T07:19:26.553Z,4.70
2023-03-19T07:20:26.495Z,4.20
2023-03-19T07:21:26.483Z,4.50
2023-03-19T07:22:26.485Z,4.50
2023-03-19T07:23:26.465Z,4.30
2023-03-19T07:24:26.439Z,4.70
2023-03-19T07:25:26.459Z,4.50
2023-03-19T07:26:26.419Z,4.90
2023-03-19T07:27:26.415Z,5.60
2023-03-19T07:28:26.409Z,5.00
2023-03-19T07:29:26.389Z,9.30
2023-03-19T07:30:26.393Z,6.50
2023-03-19T07:31:26.454Z,5.10
2023-03-19T07:32:26.347Z,8.80
2023-03-19T07:33:26.345Z,6.20
2023-03-19T07:34:26.328Z,5.10
2023-03-19T07:35:26.319Z,5.40
2023-03-19T07:36:26.280Z,5.10
2023-03-19T07:37:26.332Z,5.20
2023-03-19T07:38:26.264Z,6.10
2023-03-19T07:39:26.255Z,6.50
2023-03-19T07:40:26.236Z,6.00
2023-03-19T07:41:26.218Z,5.70
2023-03-19T07:42:26.214Z,6.20
2023-03-19T07:43:26.257Z,6.30
2023-03-19T07:44:26.186Z,7.90
2023-03-19T07:45:26.166Z,6.20
2023-03-19T07:46:26.155Z,5.20
2023-03-19T07:47:29.399Z,4.50
2023-03-19T07:48:26.155Z,4.10
2023-03-19T07:49:26.149Z,4.50
2023-03-19T07:50:26.115Z,4.10
2023-03-19T07:51:26.091Z,3.90
2023-03-19T07:52:26.136Z,5.50
2023-03-19T07:53:26.066Z,6.50
2023-03-19T07:54:26.065Z,4.20
2023-03-19T07:55:26.071Z,9.10
2023-03-19T07:56:26.045Z,9.50
2023-03-19T07:57:26.017Z,8.30
2023-03-19T07:58:26.009Z,4.20
2023-03-19T07:59:26.027Z,4.30
2023-03-19T08:00:25.969Z,5.70
2023-03-19T08:01:26.024Z,5.90
2023-03-19T08:02:25.987Z,10.70
2023-03-19T08:03:25.945Z,8.50
2023-03-19T08:04:25.969Z,6.40
2023-03-19T08:05:25.926Z,5.90
2023-03-19T08:06:25.908Z,4.50
2023-03-19T08:07:25.949Z,4.00
2023-03-19T08:08:25.878Z,4.80
2023-03-19T08:09:25.857Z,5.30
2023-03-19T08:10:25.869Z,4.80
2023-03-19T08:11:25.830Z,4.20
2023-03-19T08:12:25.817Z,5.00
2023-03-19T08:13:25.851Z,3.60
2023-03-19T08:14:25.806Z,3.90
2023-03-19T08:15:25.778Z,4.90
2023-03-19T08:16:25.854Z,4.70
2023-03-19T08:17:25.756Z,3.70
2023-03-19T08:18:25.746Z,3.80
2023-03-19T08:19:25.759Z,3.80
2023-03-19T08:20:25.736Z,3.50
2023-03-19T08:21:25.730Z,3.20
2023-03-19T08:22:25.691Z,3.20
2023-03-19T08:23:25.681Z,3.10
2023-03-19T08:24:25.656Z,3.30
2023-03-19T08:25:25.711Z,3.60
2023-03-19T08:26:25.646Z,3.40
2023-03-19T08:27:25.638Z,3.30
2023-03-19T08:28:25.607Z,3.10
2023-03-19T08:29:25.599Z,3.40
2023-03-19T08:30:25.594Z,3.50
2023-03-19T08:31:25.643Z,3.30
2023-03-19T08:32:25.565Z,3.10
2023-03-19T08:33:25.749Z,3.40
2023-03-19T08:34:25.545Z,3.40
2023-03-19T08:35:25.517Z,3.50
2023-03-19T08:36:25.511Z,3.70
2023-03-19T08:37:25.544Z,3.50
2023-03-19T08:38:25.475Z,3.60
2023-03-19T08:39:25.477Z,3.50
2023-03-19T08:40:25.450Z,3.10
2023-03-19T08:41:25.448Z,3.50
2023-03-19T08:42:25.434Z,3.50
2023-03-19T08:43:25.445Z,3.70
2023-03-19T08:44:25.406Z,3.70
2023-03-19T08:45:25.384Z,3.40
2023-03-19T08:46:25.517Z,3.30
2023-03-19T08:47:25.362Z,3.50
2023-03-19T08:48:25.348Z,3.30
2023-03-19T08:49:25.363Z,3.40
2023-03-19T08:50:25.325Z,3.50
2023-03-19T08:51:25.325Z,3.50
2023-03-19T08:52:25.295Z,3.40
2023-03-19T08:53:25.286Z,3.50
2023-03-19T08:54:25.262Z,3.50
2023-03-19T08:55:25.280Z,3.60
2023-03-19T08:56:25.239Z,3.20
2023-03-19T08:57:25.233Z,3.70
2023-03-19T08:58:25.245Z,3.30
2023-03-19T08:59:25.202Z,3.20
2023-03-19T09:00:25.201Z,2.90
2023-03-19T09:01:25.269Z,3.00
2023-03-19T09:02:25.162Z,3.40
2023-03-19T09:03:25.149Z,3.40
2023-03-19T09:04:25.152Z,3.20
2023-03-19T09:05:25.149Z,2.90
2023-03-19T09:06:25.104Z,3.50
2023-03-19T09:07:25.124Z,3.40
2023-03-19T09:08:25.085Z,3.50
2023-03-19T09:09:25.066Z,3.50
2023-03-19T09:10:25.108Z,3.70
2023-03-19T09:11:25.049Z,3.40
2023-03-19T09:12:25.031Z,3.50
2023-03-19T09:13:25.055Z,3.90
2023-03-19T09:14:25.008Z,3.90
2023-03-19T09:15:25.006Z,3.10
2023-03-19T09:16:24.996Z,3.40
2023-03-19T09:17:24.970Z,3.10
2023-03-19T09:18:24.953Z,3.30
2023-03-19T09:19:24.983Z,3.40
2023-03-19T09:20:24.942Z,3.30
2023-03-19T09:21:24.911Z,3.10
2023-03-19T09:22:24.900Z,3.10
2023-03-19T09:23:24.899Z,3.00
2023-03-19T09:24:24.872Z,3.20
2023-03-19T09:25:24.907Z,2.90
2023-03-19T09:26:24.885Z,3.50
2023-03-19T09:27:24.846Z,3.20
2023-03-19T09:28:24.848Z,3.10
2023-03-19T09:29:24.806Z,3.50
2023-03-19T09:30:24.815Z,3.10
2023-03-19T09:31:24.938Z,3.30
2023-03-19T09:32:24.779Z,3.30
2023-03-19T09:33:24.766Z,3.00
2023-03-19T09:34:24.759Z,2.90
2023-03-19T09:35:24.746Z,3.10
2023-03-19T09:36:24.743Z,2.90
2023-03-19T09:37:24.745Z,2.80
2023-03-19T09:38:24.718Z,2.80
2023-03-19T09:39:24.687Z,3.00
2023-03-19T09:40:24.717Z,2.90
2023-03-19T09:41:24.659Z,2.70
2023-03-19T09:42:24.648Z,2.50
2023-03-19T09:43:24.659Z,2.90
2023-03-19T09:44:24.623Z,2.40
2023-03-19T09:45:24.619Z,2.90
2023-03-19T09:46:24.645Z,2.90
2023-03-19T09:47:24.587Z,3.10
2023-03-19T09:48:24.570Z,3.20
2023-03-19T09:49:24.594Z,2.80
2023-03-19T09:50:24.569Z,2.90
2023-03-19T09:51:24.526Z,2.70
2023-03-19T09:52:24.551Z,3.00
2023-03-19T09:53:24.500Z,3.10
2023-03-19T09:54:24.500Z,2.90
2023-03-19T09:55:24.504Z,3.10
2023-03-19T09:56:24.469Z,3.10
2023-03-19T09:57:24.470Z,3.30
2023-03-19T09:58:24.505Z,3.40
2023-03-19T09:59:24.429Z,3.20
2023-03-19T10:00:24.417Z,3.10
2023-03-19T10:01:24.573Z,3.00
2023-03-19T10:02:24.406Z,2.90
2023-03-19T10:03:24.381Z,2.70
2023-03-19T10:04:24.393Z,2.50
2023-03-19T10:05:24.350Z,2.60
2023-03-19T10:06:24.338Z,2.70
2023-03-19T10:07:24.377Z,2.70
2023-03-19T10:08:24.320Z,2.60
2023-03-19T10:09:24.328Z,2.90
2023-03-19T10:10:24.297Z,2.70
2023-03-19T10:11:24.289Z,2.90
2023-03-19T10:12:24.278Z,2.80
2023-03-19T10:13:24.306Z,3.00
2023-03-19T10:14:24.240Z,3.00
2023-03-19T10:15:24.228Z,3.00
2023-03-19T10:16:24.288Z,3.30
2023-03-19T10:17:24.214Z,3.60
2023-03-19T10:18:24.203Z,3.70
2023-03-19T10:19:24.206Z,3.00
2023-03-19T10:20:24.164Z,2.80
2023-03-19T10:21:24.153Z,2.60
2023-03-19T10:22:24.138Z,2.70
2023-03-19T10:23:24.136Z,2.90
2023-03-19T10:24:24.106Z,2.80
2023-03-19T10:25:24.136Z,3.00
2023-03-19T10:26:24.095Z,3.00
2023-03-19T10:27:24.095Z,3.10
2023-03-19T10:28:24.066Z,2.70
2023-03-19T10:29:24.056Z,2.70
2023-03-19T10:30:24.051Z,3.20
2023-03-19T10:31:24.096Z,2.90
2023-03-19T10:32:24.017Z,3.00
2023-03-19T10:33:24.042Z,2.70
2023-03-19T10:34:23.999Z,2.70
2023-03-19T10:35:23.983Z,2.60
2023-03-19T10:36:24.007Z,2.60
2023-03-19T10:37:24.004Z,2.80
2023-03-19T10:38:23.953Z,3.00
2023-03-19T10:39:23.930Z,3.10
2023-03-19T10:40:23.915Z,3.00
2023-03-19T10:41:23.897Z,3.70
2023-03-19T10:42:23.899Z,3.80
2023-03-19T10:43:23.924Z,2.90
2023-03-19T10:44:23.874Z,2.70
2023-03-19T10:45:23.871Z,2.70
2023-03-19T10:46:23.876Z,2.60
2023-03-19T10:47:23.830Z,2.90
2023-03-19T10:48:23.844Z,2.70
2023-03-19T10:49:23.836Z,2.90
2023-03-19T10:50:23.784Z,2.70
2023-03-19T10:51:23.779Z,2.90
2023-03-19T10:52:23.786Z,2.70
2023-03-19T10:53:23.761Z,2.70
2023-03-19T10:54:23.744Z,3.00
2023-03-19T10:55:23.769Z,2.70
2023-03-19T10:56:23.718Z,2.60
2023-03-19T10:57:23.713Z,2.50
2023-03-19T10:58:23.698Z,2.60
2023-03-19T10:59:23.684Z,2.50
2023-03-19T11:00:23.681Z,2.70
2023-03-19T11:01:23.764Z,2.50
2023-03-19T11:02:23.656Z,2.70
2023-03-19T11:03:23.652Z,2.80
2023-03-19T11:04:23.626Z,3.40
2023-03-19T11:05:23.603Z,3.40
2023-03-19T11:06:23.596Z,3.30
2023-03-19T11:07:23.643Z,3.30
2023-03-19T11:08:35.376Z,3.00
2023-03-19T11:09:23.560Z,3.90
2023-03-19T11:10:23.533Z,3.00
2023-03-19T11:11:23.524Z,3.00
2023-03-19T11:12:23.519Z,3.00
2023-03-19T11:13:23.541Z,2.70
2023-03-19T11:14:23.502Z,2.80
2023-03-19T11:15:23.475Z,3.00
2023-03-19T11:16:23.561Z,3.00
2023-03-19T11:17:23.462Z,2.90
2023-03-19T11:18:23.453Z,3.90
2023-03-19T11:19:23.449Z,3.50
2023-03-19T11:20:23.418Z,3.10
2023-03-19T11:21:23.429Z,3.40
2023-03-19T11:22:23.427Z,2.60
2023-03-19T11:23:23.404Z,2.50
2023-03-19T11:24:23.366Z,2.60
2023-03-19T11:25:23.397Z,2.50
2023-03-19T11:26:23.347Z,2.50
2023-03-19T11:27:23.344Z,2.70
2023-03-19T11:28:26.050Z,2.80
2023-03-19T11:29:23.306Z,3.10
2023-03-19T11:30:23.290Z,3.10
2023-03-19T11:31:23.334Z,3.60
2023-03-19T11:32:23.391Z,3.50
2023-03-19T11:33:23.320Z,3.10
2023-03-19T11:34:23.257Z,2.70
2023-03-19T11:35:23.240Z,2.30
2023-03-19T11:36:23.219Z,3.00
2023-03-19T11:37:23.266Z,3.10
2023-03-19T11:38:23.192Z,3.20
2023-03-19T11:39:23.198Z,3.40
2023-03-19T11:40:25.184Z,3.30
2023-03-19T11:41:23.165Z,3.10
2023-03-19T11:42:23.159Z,3.20
2023-03-19T11:43:23.156Z,3.30
2023-03-19T11:44:23.134Z,2.90
2023-03-19T11:45:23.139Z,3.00
2023-03-19T11:46:23.121Z,3.00
2023-03-19T11:47:27.527Z,3.10
2023-03-19T11:48:23.098Z,3.20
2023-03-19T11:49:23.104Z,3.30
2023-03-19T11:50:23.060Z,3.10
2023-03-19T11:51:23.040Z,3.30
2023-03-19T11:52:23.047Z,3.20
2023-03-19T11:53:23.038Z,3.20
2023-03-19T11:54:23.025Z,2.50
2023-03-19T11:55:23.042Z,2.30
2023-03-19T11:56:23.011Z,2.90
2023-03-19T11:57:22.980Z,3.10
2023-03-19T11:58:22.972Z,3.60
2023-03-19T11:59:22.965Z,3.50
2023-03-19T12:00:22.957Z,3.40
2023-03-19T12:01:22.973Z,3.30
2023-03-19T12:02:23.080Z,5.00
2023-03-19T12:03:23.010Z,3.90
2023-03-19T12:04:22.901Z,3.60
2023-03-19T12:05:22.887Z,3.20
2023-03-19T12:06:22.873Z,3.00
2023-03-19T12:07:22.899Z,2.90
2023-03-19T12:08:22.855Z,2.90
2023-03-19T12:09:22.847Z,3.10
2023-03-19T12:10:22.822Z,3.30
2023-03-19T12:11:22.818Z,3.00
2023-03-19T12:12:24.353Z,3.00
2023-03-19T12:13:22.823Z,2.90
2023-03-19T12:14:22.793Z,3.20
2023-03-19T12:15:22.767Z,3.50
2023-03-19T12:16:22.823Z,3.00
2023-03-19T12:17:22.761Z,3.50
2023-03-19T12:18:22.735Z,3.60
2023-03-19T12:19:22.758Z,3.00
2023-03-19T12:20:22.713Z,3.70
2023-03-19T12:21:22.703Z,4.00
2023-03-19T12:22:22.693Z,3.70
2023-03-19T12:23:22.695Z,4.00
2023-03-19T12:24:22.678Z,4.10
2023-03-19T12:25:22.677Z,3.90
2023-03-19T12:26:22.640Z,4.10
2023-03-19T12:27:22.641Z,3.70
2023-03-19T12:28:22.623Z,2.90
2023-03-19T12:29:22.616Z,2.80
2023-03-19T12:30:22.613Z,2.60
2023-03-19T12:31:22.638Z,2.40
2023-03-19T12:32:22.580Z,2.40
2023-03-19T12:33:22.598Z,2.60
2023-03-19T12:34:22.551Z,2.40
2023-03-19T12:35:22.545Z,2.70
2023-03-19T12:36:22.519Z,2.40
2023-03-19T12:37:22.582Z,2.60
2023-03-19T12:38:22.618Z,2.50
2023-03-19T12:39:22.489Z,2.50
2023-03-19T12:40:22.478Z,2.40
2023-03-19T12:41:22.464Z,2.60
2023-03-19T12:42:22.483Z,2.60
2023-03-19T12:43:22.472Z,2.60
2023-03-19T12:44:22.427Z,2.70
2023-03-19T12:45:22.400Z,2.70
2023-03-19T12:46:22.402Z,2.50
2023-03-19T12:47:22.400Z,2.40
2023-03-19T12:48:22.390Z,2.80
2023-03-19T12:49:22.398Z,2.60
2023-03-19T12:50:22.342Z,3.00
2023-03-19T12:51:22.333Z,2.50
2023-03-19T12:52:22.334Z,2.50
2023-03-19T12:53:22.313Z,2.60
2023-03-19T12:54:22.305Z,2.70
2023-03-19T12:55:22.359Z,2.40
2023-03-19T12:56:22.276Z,2.60
2023-03-19T12:57:22.262Z,2.70
2023-03-19T12:58:22.260Z,2.80
2023-03-19T12:59:22.226Z,2.60
2023-03-19T13:00:22.222Z,2.70
2023-03-19T13:01:22.289Z,2.60
2023-03-19T13:02:22.325Z,2.60
2023-03-19T13:03:22.186Z,2.60
2023-03-19T13:04:22.238Z,2.70
2023-03-19T13:05:22.159Z,2.70
2023-03-19T13:06:22.150Z,2.90
2023-03-19T13:07:22.183Z,2.70
2023-03-19T13:08:22.121Z,2.90
2023-03-19T13:09:22.110Z,2.60
2023-03-19T13:10:22.101Z,3.00
2023-03-19T13:11:22.093Z,2.80
2023-03-19T13:12:22.066Z,2.60
2023-03-19T13:13:22.085Z,2.70
2023-03-19T13:14:22.046Z,2.60
2023-03-19T13:15:22.052Z,2.60
2023-03-19T13:16:22.063Z,2.70
2023-03-19T13:17:22.000Z,2.70
2023-03-19T13:18:22.001Z,2.70
2023-03-19T13:19:22.003Z,2.40